Time;durP1;ratioP1;P1;durP2;ratioP2;P2;SDS_P1;SDS_P2;PMS_P1;PMS_P2;Temp;Humidity;BMP_temperature;BMP_pressure;BME280_temperature;BME280_humidity;BME280_pressure;Samples;Min_cycle;Max_cycle;Signal;HPM_P1;HPM_P2
2023/02/27 00:04:16;;;;;;;0.65;0.43;;;1.20;95.20;;;;;;10137444;28;20024;-65
2023/02/27 00:09:07;;;;;;;1.08;0.50;;;1.30;95.30;;;;;;10123580;28;20479;-64
2023/02/27 00:13:57;;;;;;;0.93;0.40;;;1.30;95.40;;;;;;10104432;28;20180;-64
2023/02/27 00:18:48;;;;;;;2.28;0.47;;;1.20;95.50;;;;;;10085869;28;20032;-64
2023/02/27 00:23:39;;;;;;;1.20;0.60;;;1.20;95.80;;;;;;10103872;28;20031;-65
2023/02/27 00:28:30;;;;;;;1.63;0.50;;;1.20;96.00;;;;;;10104598;28;20140;-64
2023/02/27 00:33:21;;;;;;;1.80;0.50;;;1.20;96.00;;;;;;10098445;28;20556;-64
2023/02/27 00:38:13;;;;;;;2.22;0.60;;;1.10;96.10;;;;;;10103194;28;20029;-64
2023/02/27 00:43:04;;;;;;;0.95;0.60;;;1.20;96.10;;;;;;10121523;28;20468;-64
2023/02/27 00:47:54;;;;;;;0.68;0.68;;;1.10;96.10;;;;;;10143195;28;20027;-64
2023/02/27 00:52:45;;;;;;;1.33;0.50;;;1.10;96.10;;;;;;10109982;28;20052;-63
2023/02/27 00:57:37;;;;;;;0.40;0.40;;;1.20;96.30;;;;;;10102722;28;20163;-64
2023/02/27 01:02:28;;;;;;;0.45;0.35;;;1.10;96.40;;;;;;10102758;28;20028;-63
2023/02/27 01:07:18;;;;;;;0.65;0.50;;;1.10;96.50;;;;;;10102172;28;20032;-64
2023/02/27 01:12:09;;;;;;;0.98;0.60;;;1.10;96.60;;;;;;10113772;28;20023;-64
2023/02/27 01:17:00;;;;;;;1.20;0.40;;;1.00;96.80;;;;;;10130675;28;20099;-64
2023/02/27 01:21:51;;;;;;;0.98;0.45;;;1.00;96.90;;;;;;10101706;28;20025;-64
2023/02/27 01:26:42;;;;;;;2.58;0.57;;;1.00;97.00;;;;;;10097909;28;20029;-64
2023/02/27 01:31:33;;;;;;;0.68;0.68;;;1.00;97.00;;;;;;10080282;28;20264;-63
2023/02/27 01:36:23;;;;;;;0.85;0.50;;;0.90;97.20;;;;;;10100951;28;20067;-63
2023/02/27 01:41:14;;;;;;;0.90;0.68;;;0.90;97.30;;;;;;10105280;28;20021;-63
2023/02/27 01:46:05;;;;;;;1.05;0.55;;;0.90;97.40;;;;;;10104596;28;20082;-62
2023/02/27 01:51:01;;;;;;;1.58;0.70;;;0.90;97.50;;;;;;10104072;28;20086;-61
2023/02/27 01:55:56;;;;;;;0.60;0.40;;;0.80;97.60;;;;;;10125828;28;20110;-63
2023/02/27 02:00:47;;;;;;;2.25;0.82;;;0.80;97.70;;;;;;10100280;28;20033;-63
2023/02/27 02:05:38;;;;;;;1.15;0.88;;;0.80;97.80;;;;;;10100290;28;20025;-64
2023/02/27 02:10:31;;;;;;;0.47;0.38;;;0.70;97.90;;;;;;10099980;28;20071;-62
2023/02/27 02:15:29;;;;;;;0.47;0.43;;;0.70;98.10;;;;;;10098987;28;20462;-63
2023/02/27 02:20:28;;;;;;;4.13;0.50;;;0.70;98.10;;;;;;10099342;28;20023;-62
2023/02/27 02:25:40;;;;;;;0.57;0.55;;;0.70;98.20;;;;;;10104749;28;20057;-62
2023/02/27 02:30:34;;;;;;;2.08;0.82;;;0.70;98.30;;;;;;10095876;28;20029;-62
2023/02/27 02:35:49;;;;;;;1.63;0.80;;;0.70;98.40;;;;;;10121536;28;20066;-62
2023/02/27 02:40:48;;;;;;;2.03;0.60;;;0.60;98.50;;;;;;10105405;28;20078;-63
2023/02/27 02:45:51;;;;;;;0.70;0.30;;;0.60;98.80;;;;;;10099186;28;20037;-63
2023/02/27 02:51:22;;;;;;;0.80;0.57;;;0.50;99.00;;;;;;10098493;28;20022;-62
2023/02/27 02:56:28;;;;;;;0.57;0.43;;;0.50;99.00;;;;;;10098802;28;20055;-62
2023/02/27 03:01:45;;;;;;;1.42;0.60;;;0.50;99.10;;;;;;10107991;28;20518;-61
2023/02/27 03:06:44;;;;;;;1.13;0.70;;;0.40;99.30;;;;;;10119390;28;20037;-62
2023/02/27 03:11:39;;;;;;;3.30;0.85;;;0.40;99.30;;;;;;10093425;28;20049;-62
2023/02/27 03:16:43;;;;;;;0.40;0.40;;;0.40;99.40;;;;;;10133060;28;20146;-62
2023/02/27 03:21:55;;;;;;;0.65;0.60;;;0.40;99.60;;;;;;10139159;28;20032;-62
2023/02/27 03:26:49;;;;;;;0.65;0.50;;;0.40;99.80;;;;;;10093703;28;20105;-63
2023/02/27 03:31:51;;;;;;;1.23;0.70;;;0.40;99.90;;;;;;10116771;28;20024;-63
2023/02/27 03:37:28;;;;;;;1.42;0.75;;;0.30;99.90;;;;;;10098592;28;20147;-62
2023/02/27 03:42:29;;;;;;;0.45;0.40;;;0.30;99.90;;;;;;10035004;28;20048;-64
2023/02/27 03:47:20;;;;;;;3.00;0.80;;;0.30;99.90;;;;;;10145476;28;20036;-63
2023/02/27 03:52:11;;;;;;;0.63;0.43;;;0.20;99.90;;;;;;10140704;28;20384;-64
2023/02/27 03:57:05;;;;;;;1.48;0.60;;;0.20;99.90;;;;;;10105267;28;20071;-63
2023/02/27 04:01:56;;;;;;;0.45;0.45;;;0.20;99.90;;;;;;10104249;28;20419;-63
2023/02/27 04:12:14;;;;;;;0.65;0.52;;;0.20;99.90;;;;;;10117349;28;20303;-63
2023/02/27 04:17:20;;;;;;;1.15;0.57;;;0.20;99.90;;;;;;10120667;22;20057;-66
2023/02/27 04:22:50;;;;;;;0.63;0.50;;;0.20;99.90;;;;;;10117393;28;20039;-61
2023/02/27 04:28:35;;;;;;;0.88;0.50;;;0.20;99.90;;;;;;10142776;28;20159;-60
2023/02/27 04:33:40;;;;;;;1.23;0.85;;;0.10;99.90;;;;;;10077748;28;20044;-61
2023/02/27 04:38:36;;;;;;;1.07;0.50;;;0.10;99.90;;;;;;10103179;28;20492;-61
2023/02/27 04:43:28;;;;;;;1.40;0.60;;;0.10;99.90;;;;;;10104142;28;20029;-62
2023/02/27 04:48:23;;;;;;;0.25;0.25;;;0.10;99.90;;;;;;10102688;28;20028;-60
2023/02/27 04:53:18;;;;;;;1.77;0.68;;;0.10;99.90;;;;;;10127438;28;20103;-62
2023/02/27 04:58:12;;;;;;;1.73;0.70;;;0.00;99.90;;;;;;10132243;28;20040;-60
2023/02/27 05:03:11;;;;;;;1.10;0.73;;;0.00;99.90;;;;;;10102668;28;20048;-59
2023/02/27 05:08:13;;;;;;;2.63;0.88;;;0.00;99.90;;;;;;10101875;28;20120;-65
2023/02/27 05:13:26;;;;;;;1.25;0.50;;;0.00;99.90;;;;;;10101673;28;20510;-60
2023/02/27 05:18:19;;;;;;;2.10;1.00;;;0.00;99.90;;;;;;10101852;28;20135;-61
2023/02/27 05:23:16;;;;;;;1.30;0.80;;;0.00;99.90;;;;;;10123782;28;20043;-63
2023/02/27 05:28:21;;;;;;;1.48;0.55;;;-0.10;99.90;;;;;;10138283;28;20025;-63
2023/02/27 05:33:24;;;;;;;1.33;0.88;;;0.00;99.90;;;;;;10108578;28;20487;-70
2023/02/27 05:38:24;;;;;;;0.80;0.52;;;-0.10;99.90;;;;;;10102142;28;20073;-66
2023/02/27 05:43:21;;;;;;;1.60;0.70;;;-0.10;99.90;;;;;;10128386;28;20052;-64
2023/02/27 05:48:23;;;;;;;4.80;1.00;;;-0.10;99.90;;;;;;10107525;28;20031;-61
2023/02/27 05:53:18;;;;;;;1.58;0.82;;;-0.20;99.90;;;;;;10136784;28;20447;-67
2023/02/27 05:58:27;;;;;;;0.77;0.77;;;-0.20;99.90;;;;;;10101684;28;20041;-61
2023/02/27 06:03:17;;;;;;;1.10;0.70;;;-0.10;99.90;;;;;;10103131;28;20028;-61
2023/02/27 06:08:11;;;;;;;1.15;0.68;;;-0.20;99.90;;;;;;10094462;28;20030;-61
2023/02/27 06:13:02;;;;;;;0.68;0.47;;;-0.20;99.90;;;;;;10098160;28;20515;-62
2023/02/27 06:17:53;;;;;;;2.10;0.63;;;-0.20;99.90;;;;;;10099745;28;20109;-60
2023/02/27 06:22:44;;;;;;;1.38;0.52;;;-0.20;99.90;;;;;;10118319;28;20478;-64
2023/02/27 06:27:35;;;;;;;3.25;1.02;;;-0.20;99.90;;;;;;10129599;28;20074;-59
2023/02/27 06:32:25;;;;;;;1.58;0.75;;;-0.20;99.90;;;;;;10115581;28;20548;-61
2023/02/27 06:37:16;;;;;;;1.17;0.57;;;-0.10;99.90;;;;;;10099608;28;20033;-61
2023/02/27 06:42:07;;;;;;;3.15;0.95;;;0.00;99.90;;;;;;10099312;28;20483;-60
2023/02/27 06:46:57;;;;;;;1.98;0.90;;;-0.10;99.90;;;;;;10099454;28;20028;-63
2023/02/27 06:51:48;;;;;;;1.20;0.80;;;-0.10;99.90;;;;;;10098781;28;20502;-64
2023/02/27 06:56:41;;;;;;;1.90;0.60;;;-0.10;99.90;;;;;;10098806;28;20081;-68
2023/02/27 07:01:32;;;;;;;1.40;0.77;;;-0.10;99.90;;;;;;10109648;28;20028;-60
2023/02/27 07:06:23;;;;;;;1.88;0.95;;;-0.10;99.90;;;;;;10139220;28;20148;-61
2023/02/27 07:11:13;;;;;;;3.38;1.45;;;-0.10;99.90;;;;;;10103938;28;20376;-59
2023/02/27 07:16:05;;;;;;;1.85;1.13;;;0.00;99.90;;;;;;10133760;28;20449;-63
2023/02/27 07:20:55;;;;;;;1.70;0.90;;;0.10;99.90;;;;;;10088041;28;20421;-60
2023/02/27 07:25:47;;;;;;;2.20;1.02;;;0.10;99.90;;;;;;10112715;28;20029;-60
2023/02/27 07:30:38;;;;;;;1.77;0.95;;;0.10;99.90;;;;;;10111995;28;20021;-60
2023/02/27 07:35:31;;;;;;;2.28;1.00;;;0.20;99.90;;;;;;10098541;28;20041;-60
2023/02/27 07:40:22;;;;;;;1.38;0.82;;;0.20;99.90;;;;;;10102286;28;20372;-59
2023/02/27 07:45:12;;;;;;;0.95;0.75;;;0.20;99.90;;;;;;10103245;28;20033;-55
2023/02/27 07:50:03;;;;;;;5.30;1.45;;;0.30;99.90;;;;;;10099296;28;20033;-58
2023/02/27 07:54:54;;;;;;;2.58;0.90;;;0.40;99.90;;;;;;10100100;28;20049;-56
2023/02/27 07:59:45;;;;;;;1.65;0.95;;;0.50;99.90;;;;;;10102178;28;20161;-64
2023/02/27 08:04:35;;;;;;;0.75;0.75;;;0.60;99.90;;;;;;10101857;28;20037;-60
2023/02/27 08:09:26;;;;;;;2.15;0.93;;;0.60;99.90;;;;;;10102272;28;20028;-56
2023/02/27 08:14:16;;;;;;;1.92;0.85;;;0.70;99.90;;;;;;10102631;28;20084;-65
2023/02/27 08:19:07;;;;;;;1.98;1.05;;;0.80;99.90;;;;;;10101045;28;20199;-64
2023/02/27 08:23:58;;;;;;;0.82;0.77;;;0.90;99.90;;;;;;10110836;28;20039;-62
2023/02/27 08:28:49;;;;;;;1.38;0.93;;;1.00;99.90;;;;;;10114160;28;20123;-68
2023/02/27 08:33:40;;;;;;;1.35;1.00;;;1.10;99.90;;;;;;10111190;28;20047;-69
2023/02/27 08:38:30;;;;;;;2.28;1.60;;;1.20;99.90;;;;;;10120999;28;20398;-66
2023/02/27 08:43:22;;;;;;;1.30;0.88;;;1.30;99.90;;;;;;10101789;28;20025;-66
2023/02/27 08:48:15;;;;;;;2.63;1.40;;;1.40;99.90;;;;;;10108272;28;20112;-62
2023/02/27 08:53:06;;;;;;;2.17;1.05;;;1.60;99.90;;;;;;10104371;28;20390;-59
2023/02/27 08:57:56;;;;;;;2.15;1.15;;;1.60;99.90;;;;;;10105446;28;20037;-68
2023/02/27 09:02:47;;;;;;;2.13;1.27;;;1.80;99.90;;;;;;10103689;28;20096;-68
2023/02/27 09:07:38;;;;;;;1.73;0.95;;;1.90;99.90;;;;;;10085970;28;20376;-61
2023/02/27 09:12:28;;;;;;;1.55;1.08;;;1.90;99.90;;;;;;10105710;28;20335;-59
2023/02/27 09:17:19;;;;;;;1.80;0.90;;;2.10;99.90;;;;;;10065265;28;20055;-58
2023/02/27 09:22:10;;;;;;;1.52;1.10;;;2.20;99.90;;;;;;10063836;28;20029;-56
2023/02/27 09:27:00;;;;;;;2.88;1.23;;;2.30;99.90;;;;;;10067425;28;20094;-59
2023/02/27 09:31:51;;;;;;;1.70;1.08;;;2.40;99.90;;;;;;10062856;28;20142;-60
2023/02/27 09:36:42;;;;;;;2.17;1.20;;;2.50;99.80;;;;;;10066300;28;20033;-57
2023/02/27 09:41:48;;;;;;;1.77;0.82;;;2.60;99.70;;;;;;10064177;28;20063;-59
2023/02/27 09:46:38;;;;;;;1.27;0.85;;;2.70;99.30;;;;;;10063146;28;20033;-58
2023/02/27 09:51:29;;;;;;;1.58;1.20;;;2.80;99.20;;;;;;10063474;28;20025;-61
2023/02/27 09:56:38;;;;;;;2.38;1.42;;;2.90;98.80;;;;;;10062593;28;20088;-61
2023/02/27 10:01:29;;;;;;;1.13;0.90;;;3.00;98.60;;;;;;10074250;28;20032;-59
2023/02/27 10:06:29;;;;;;;2.50;1.08;;;3.10;98.30;;;;;;10063970;28;20133;-58
2023/02/27 10:11:30;;;;;;;2.90;1.00;;;3.30;98.30;;;;;;10058076;28;20471;-59
2023/02/27 10:16:22;;;;;;;3.47;1.60;;;3.30;98.20;;;;;;10087646;28;20535;-59
2023/02/27 10:21:20;;;;;;;2.00;1.10;;;3.40;97.60;;;;;;10101479;28;20041;-58
2023/02/27 10:26:22;;;;;;;3.53;2.00;;;3.50;97.40;;;;;;10102632;28;20021;-61
2023/02/27 10:31:28;;;;;;;1.52;1.23;;;3.50;97.30;;;;;;10103878;28;20244;-63
2023/02/27 10:36:21;;;;;;;2.93;1.53;;;3.60;97.10;;;;;;10102850;28;20047;-59
2023/02/27 10:41:15;;;;;;;3.33;1.00;;;3.70;96.90;;;;;;10083422;28;20268;-64
2023/02/27 10:46:14;;;;;;;1.40;1.25;;;3.80;96.60;;;;;;10083082;28;20485;-60
2023/02/27 10:51:24;;;;;;;4.80;1.20;;;3.80;96.40;;;;;;10100668;28;20028;-65
2023/02/27 10:56:25;;;;;;;3.45;1.60;;;3.90;96.20;;;;;;10100132;28;20037;-65
2023/02/27 11:01:18;;;;;;;5.63;1.65;;;3.90;96.10;;;;;;10102993;28;20120;-65
2023/02/27 11:06:26;;;;;;;2.88;1.10;;;4.10;96.30;;;;;;10102230;28;20333;-60
2023/02/27 11:11:26;;;;;;;2.67;1.15;;;4.20;95.90;;;;;;10105181;28;20298;-72
2023/02/27 11:16:22;;;;;;;3.35;1.42;;;4.20;95.70;;;;;;10106717;28;20041;-70
2023/02/27 11:21:19;;;;;;;1.40;0.93;;;4.30;95.70;;;;;;10082803;28;20021;-68
2023/02/27 11:26:24;;;;;;;2.40;1.58;;;4.30;95.50;;;;;;10099701;28;20403;-78
2023/02/27 11:31:20;;;;;;;1.20;0.95;;;4.40;95.20;;;;;;10091418;28;20043;-73
2023/02/27 11:36:11;;;;;;;1.88;1.45;;;4.40;94.80;;;;;;10104818;28;20036;-66
2023/02/27 11:41:07;;;;;;;1.92;1.00;;;4.40;94.90;;;;;;10109962;28;20025;-66
2023/02/27 11:46:04;;;;;;;3.38;1.15;;;4.60;94.60;;;;;;10114204;28;20012;-67
2023/02/27 11:50:57;;;;;;;1.83;1.50;;;4.50;94.20;;;;;;10075749;28;20041;-66
2023/02/27 11:55:52;;;;;;;1.13;0.98;;;4.60;94.10;;;;;;10099772;28;20106;-67
2023/02/27 12:00:58;;;;;;;3.13;0.93;;;4.60;94.10;;;;;;10104696;28;20032;-67
2023/02/27 12:05:55;;;;;;;2.38;1.25;;;4.80;93.90;;;;;;10102985;28;20403;-68
2023/02/27 12:11:06;;;;;;;4.93;1.35;;;4.80;93.70;;;;;;10085220;28;20048;-66
2023/02/27 12:16:28;;;;;;;2.17;1.27;;;5.00;93.60;;;;;;10102872;28;20045;-67
2023/02/27 12:21:32;;;;;;;3.38;0.98;;;5.20;93.60;;;;;;10102597;28;20048;-59
2023/02/27 12:26:36;;;;;;;1.92;0.95;;;5.30;93.30;;;;;;10102594;28;20402;-69
2023/02/27 12:31:50;;;;;;;1.17;0.75;;;5.40;93.00;;;;;;10105803;28;20039;-60
2023/02/27 12:36:41;;;;;;;3.33;1.17;;;5.30;92.40;;;;;;10139335;28;20160;-61
2023/02/27 12:41:42;;;;;;;2.78;0.95;;;5.30;92.50;;;;;;10102626;28;20447;-62
2023/02/27 12:46:39;;;;;;;2.42;1.00;;;5.50;92.20;;;;;;10102953;28;20025;-60
2023/02/27 12:51:33;;;;;;;1.90;1.02;;;5.60;91.90;;;;;;10102749;28;20013;-60
2023/02/27 12:56:46;;;;;;;3.63;1.00;;;5.80;92.00;;;;;;10102899;28;20037;-61
2023/02/27 13:01:57;;;;;;;2.03;1.10;;;6.00;91.90;;;;;;10102048;28;20052;-60
2023/02/27 13:07:03;;;;;;;1.90;1.27;;;6.30;91.90;;;;;;10117304;28;20040;-61
2023/02/27 13:12:24;;;;;;;2.53;1.10;;;6.50;91.90;;;;;;10109875;28;20514;-61
2023/02/27 13:17:32;;;;;;;2.00;1.25;;;6.80;91.70;;;;;;10138276;28;20044;-60
2023/02/27 13:22:32;;;;;;;3.20;2.10;;;7.10;91.80;;;;;;10074748;28;20443;-62
2023/02/27 13:27:32;;;;;;;3.17;1.77;;;7.50;92.10;;;;;;10101624;28;20283;-64
2023/02/27 13:32:35;;;;;;;2.95;1.20;;;7.90;92.60;;;;;;10106259;28;20335;-63
2023/02/27 13:37:50;;;;;;;2.55;1.27;;;8.10;92.90;;;;;;10099856;28;20037;-63
2023/02/27 13:42:46;;;;;;;2.80;1.20;;;7.70;92.00;;;;;;10101565;28;20060;-61
2023/02/27 13:47:55;;;;;;;1.83;1.02;;;6.60;91.50;;;;;;10103788;28;20025;-60
2023/02/27 13:52:46;;;;;;;1.60;1.05;;;6.10;91.00;;;;;;10099958;28;20025;-59
2023/02/27 13:57:38;;;;;;;3.08;1.58;;;5.90;90.80;;;;;;10080289;28;20044;-60
2023/02/27 14:02:33;;;;;;;3.15;1.42;;;6.00;90.80;;;;;;10101946;28;20017;-62
2023/02/27 14:07:27;;;;;;;3.05;1.50;;;7.10;91.40;;;;;;10079696;28;20036;-62
2023/02/27 14:12:38;;;;;;;3.70;1.88;;;8.10;91.30;;;;;;10097253;28;20543;-59
2023/02/27 14:17:35;;;;;;;2.47;1.23;;;8.90;90.50;;;;;;10097835;28;20037;-66
2023/02/27 14:22:34;;;;;;;3.63;1.30;;;9.00;90.00;;;;;;10110485;28;20025;-65
2023/02/27 14:27:29;;;;;;;3.55;1.17;;;8.80;89.70;;;;;;10104150;28;20565;-60
2023/02/27 14:32:27;;;;;;;2.65;1.35;;;9.50;88.80;;;;;;10098765;28;20021;-62
2023/02/27 14:37:22;;;;;;;1.42;1.08;;;9.20;86.60;;;;;;10078759;28;20054;-62
2023/02/27 14:42:44;;;;;;;3.72;1.35;;;7.80;85.60;;;;;;10100320;28;20021;-69
2023/02/27 14:47:36;;;;;;;3.85;1.15;;;8.00;85.50;;;;;;10103748;28;20035;-70
2023/02/27 14:52:39;;;;;;;2.38;1.27;;;8.60;84.30;;;;;;10102234;28;20025;-62
2023/02/27 14:57:29;;;;;;;1.60;1.02;;;11.00;82.80;;;;;;10102484;28;20058;-61
2023/02/27 15:02:20;;;;;;;2.80;1.17;;;10.20;80.10;;;;;;10102354;28;20016;-62
2023/02/27 15:07:25;;;;;;;2.15;1.30;;;8.00;81.80;;;;;;10101202;28;20127;-63
2023/02/27 15:12:19;;;;;;;1.63;1.23;;;7.00;82.20;;;;;;10095981;28;20009;-63
2023/02/27 15:17:16;;;;;;;2.75;1.13;;;6.80;82.50;;;;;;10077960;28;20041;-62
2023/02/27 15:22:17;;;;;;;3.20;1.17;;;6.60;82.40;;;;;;10099125;28;20013;-63
2023/02/27 15:27:12;;;;;;;1.90;1.13;;;6.50;82.30;;;;;;10099286;28;20100;-64
2023/02/27 15:32:04;;;;;;;3.43;2.73;;;6.30;82.60;;;;;;10084350;28;20021;-66
2023/02/27 15:36:57;;;;;;;2.17;1.08;;;6.20;82.80;;;;;;10106124;28;20043;-64
2023/02/27 15:41:53;;;;;;;2.90;1.10;;;6.00;83.10;;;;;;10107681;28;20036;-64
2023/02/27 15:46:45;;;;;;;2.90;1.10;;;5.80;83.30;;;;;;10109152;28;20037;-65
2023/02/27 15:51:35;;;;;;;2.83;1.25;;;5.50;83.50;;;;;;10088214;28;20035;-65
2023/02/27 15:56:34;;;;;;;1.65;1.17;;;5.40;83.70;;;;;;10116921;28;20128;-66
2023/02/27 16:01:33;;;;;;;2.13;0.90;;;5.30;84.40;;;;;;10112275;28;20051;-64
2023/02/27 16:06:32;;;;;;;3.67;1.17;;;5.30;84.10;;;;;;10108191;28;20488;-64
2023/02/27 16:11:29;;;;;;;1.38;0.93;;;5.10;84.10;;;;;;10109183;28;20052;-64
2023/02/27 16:16:33;;;;;;;1.83;1.35;;;5.00;84.30;;;;;;10102473;28;20057;-64
2023/02/27 16:21:26;;;;;;;1.67;1.33;;;5.00;84.40;;;;;;10102812;28;20058;-65
2023/02/27 16:26:22;;;;;;;2.97;1.00;;;4.90;84.70;;;;;;10107528;28;20021;-65
2023/02/27 16:31:33;;;;;;;2.27;1.27;;;4.90;84.60;;;;;;10105321;28;20032;-64
2023/02/27 16:36:30;;;;;;;1.75;1.00;;;5.00;84.80;;;;;;10105098;28;20045;-66
2023/02/27 16:41:24;;;;;;;1.83;1.02;;;4.90;84.90;;;;;;10105524;28;20024;-62
2023/02/27 16:46:21;;;;;;;1.48;1.00;;;4.80;85.00;;;;;;10105046;28;20060;-64
2023/02/27 16:51:16;;;;;;;2.35;1.30;;;4.70;85.10;;;;;;10106269;28;20021;-64
2023/02/27 16:56:11;;;;;;;1.65;1.15;;;4.70;85.10;;;;;;10105581;28;20025;-63
2023/02/27 17:01:02;;;;;;;2.13;0.97;;;4.70;85.00;;;;;;10104319;28;20033;-63
2023/02/27 17:05:53;;;;;;;1.52;1.00;;;4.70;85.00;;;;;;10107162;28;20023;-64
2023/02/27 17:10:47;;;;;;;2.10;1.10;;;4.60;85.00;;;;;;10105492;28;20040;-67
2023/02/27 17:15:37;;;;;;;1.20;0.90;;;4.70;85.10;;;;;;10103439;28;20049;-68
2023/02/27 17:20:29;;;;;;;1.20;0.70;;;4.70;85.20;;;;;;10103332;28;20040;-68
2023/02/27 17:25:19;;;;;;;0.98;0.75;;;4.80;85.10;;;;;;10109243;28;20021;-64
2023/02/27 17:30:11;;;;;;;2.00;1.30;;;4.60;85.10;;;;;;10102475;28;20502;-66
2023/02/27 17:35:01;;;;;;;1.52;1.02;;;4.60;85.40;;;;;;10103537;28;20621;-66
2023/02/27 17:39:53;;;;;;;2.63;1.27;;;4.60;85.40;;;;;;10103165;28;20168;-62
2023/02/27 17:44:45;;;;;;;2.10;1.00;;;4.60;85.50;;;;;;10082301;28;20036;-65
2023/02/27 17:49:36;;;;;;;1.85;1.05;;;4.50;85.60;;;;;;10079928;28;20607;-62
2023/02/27 17:54:27;;;;;;;1.92;1.30;;;4.50;85.60;;;;;;10100498;28;20033;-63
2023/02/27 17:59:17;;;;;;;2.55;1.10;;;4.50;85.50;;;;;;10086668;28;20391;-64
2023/02/27 18:04:10;;;;;;;1.80;0.82;;;4.40;85.40;;;;;;10078218;28;20025;-63
2023/02/27 18:09:03;;;;;;;4.32;0.95;;;4.40;85.40;;;;;;10098081;28;20053;-64
2023/02/27 18:13:53;;;;;;;1.65;0.98;;;4.40;85.30;;;;;;10098817;28;20045;-64
2023/02/27 18:18:44;;;;;;;2.65;0.80;;;4.40;85.20;;;;;;10098998;28;20441;-64
2023/02/27 18:23:36;;;;;;;2.25;1.30;;;4.30;85.10;;;;;;10119322;28;20020;-64
2023/02/27 18:28:27;;;;;;;1.52;0.77;;;4.40;85.10;;;;;;10135173;28;20403;-64
2023/02/27 18:33:18;;;;;;;1.85;0.95;;;4.30;85.00;;;;;;10099902;28;20025;-63
2023/02/27 18:38:09;;;;;;;1.17;0.95;;;4.30;85.20;;;;;;10081190;28;20438;-65
2023/02/27 18:43:02;;;;;;;2.78;0.90;;;4.30;85.30;;;;;;10099703;28;20029;-63
2023/02/27 18:47:53;;;;;;;3.03;1.20;;;4.30;85.50;;;;;;10100065;28;20039;-64
2023/02/27 18:52:46;;;;;;;2.75;1.05;;;4.20;85.60;;;;;;10099460;28;20162;-63
2023/02/27 18:57:36;;;;;;;1.75;0.75;;;4.30;85.80;;;;;;10082194;28;20367;-62
2023/02/27 19:02:27;;;;;;;2.00;1.40;;;4.20;85.60;;;;;;10099832;28;20095;-63
2023/02/27 19:07:21;;;;;;;2.15;0.90;;;4.20;85.80;;;;;;10098172;28;20087;-65
2023/02/27 19:12:11;;;;;;;2.63;0.85;;;4.10;85.80;;;;;;10097426;28;20537;-64
2023/02/27 19:17:02;;;;;;;2.65;1.30;;;4.10;85.90;;;;;;10091213;28;20155;-66
2023/02/27 19:21:54;;;;;;;3.80;1.08;;;4.10;85.90;;;;;;10094911;28;20037;-62
2023/02/27 19:26:44;;;;;;;1.23;0.95;;;4.10;85.80;;;;;;10103574;22;20053;-61
2023/02/27 19:31:35;;;;;;;2.13;1.30;;;4.00;85.70;;;;;;10096855;28;20025;-61
2023/02/27 19:36:27;;;;;;;3.75;1.80;;;4.00;85.80;;;;;;10118277;28;20100;-62
2023/02/27 19:41:19;;;;;;;3.35;1.38;;;4.00;85.70;;;;;;10097272;28;20031;-63
2023/02/27 19:46:13;;;;;;;2.33;1.58;;;3.90;85.50;;;;;;10076639;28;20033;-60
2023/02/27 19:51:06;;;;;;;2.90;2.10;;;4.00;85.50;;;;;;10104236;28;20023;-62
2023/02/27 19:56:03;;;;;;;4.10;1.75;;;3.90;85.30;;;;;;10094762;28;20057;-61
2023/02/27 20:00:54;;;;;;;3.63;1.38;;;3.90;85.20;;;;;;10104596;28;20036;-60
2023/02/27 20:05:45;;;;;;;1.90;1.30;;;3.80;85.10;;;;;;10102357;28;20033;-61
2023/02/27 20:10:36;;;;;;;2.45;1.40;;;3.80;85.00;;;;;;10110174;28;20048;-63
2023/02/27 20:15:26;;;;;;;2.67;1.38;;;3.70;84.90;;;;;;10124224;28;20037;-63
2023/02/27 20:20:17;;;;;;;3.10;1.60;;;3.70;84.90;;;;;;10116975;28;20025;-61
2023/02/27 20:25:08;;;;;;;2.70;1.30;;;3.70;84.90;;;;;;10126812;22;20831;-65
2023/02/27 20:30:00;;;;;;;3.03;1.50;;;3.70;84.90;;;;;;10093852;28;20091;-64
2023/02/27 20:34:50;;;;;;;2.67;1.42;;;3.60;85.20;;;;;;10090082;28;20320;-64
2023/02/27 20:39:44;;;;;;;2.08;1.45;;;3.50;85.30;;;;;;10088889;28;20267;-65
2023/02/27 20:44:35;;;;;;;1.80;1.35;;;3.50;85.40;;;;;;10079678;28;20104;-64
2023/02/27 20:49:26;;;;;;;1.40;1.30;;;3.60;85.60;;;;;;10096088;28;20128;-65
2023/02/27 20:54:19;;;;;;;1.70;1.05;;;3.50;85.70;;;;;;10084723;28;20025;-69
2023/02/27 20:59:13;;;;;;;2.17;1.05;;;3.50;86.20;;;;;;10085033;28;20054;-66
2023/02/27 21:04:04;;;;;;;1.80;1.10;;;3.50;86.20;;;;;;10077203;28;20026;-65
2023/02/27 21:08:55;;;;;;;3.70;1.33;;;3.50;86.40;;;;;;10096333;28;20253;-64
2023/02/27 21:13:46;;;;;;;1.73;1.20;;;3.50;86.70;;;;;;10084366;28;20537;-65
2023/02/27 21:18:37;;;;;;;3.47;1.65;;;3.40;86.80;;;;;;10082239;28;20033;-64
2023/02/27 21:23:28;;;;;;;2.63;1.30;;;3.40;86.90;;;;;;10083120;28;20049;-61
2023/02/27 21:28:19;;;;;;;1.63;1.40;;;3.40;87.10;;;;;;10077860;28;20021;-65
2023/02/27 21:33:10;;;;;;;2.55;1.30;;;3.30;87.30;;;;;;10091405;28;20021;-63
2023/02/27 21:38:00;;;;;;;2.60;1.42;;;3.30;87.40;;;;;;10089624;28;20387;-62
2023/02/27 21:42:54;;;;;;;2.03;0.88;;;3.30;87.40;;;;;;10089929;28;20115;-63
2023/02/27 21:47:45;;;;;;;1.75;1.13;;;3.20;87.60;;;;;;10085420;28;20079;-64
2023/02/27 21:52:36;;;;;;;1.70;1.25;;;3.20;87.80;;;;;;10091392;28;20082;-64
2023/02/27 21:57:26;;;;;;;2.03;1.05;;;3.10;87.80;;;;;;10093880;28;20427;-62
2023/02/27 22:02:17;;;;;;;3.13;1.38;;;3.10;88.00;;;;;;10089813;28;20499;-61
2023/02/27 22:07:07;;;;;;;1.27;1.10;;;3.00;88.10;;;;;;10090017;28;20115;-60
2023/02/27 22:11:58;;;;;;;1.50;1.40;;;2.90;87.90;;;;;;10090983;28;20416;-61
2023/02/27 22:16:49;;;;;;;2.00;0.82;;;2.90;87.80;;;;;;10090136;28;20051;-60
2023/02/27 22:21:40;;;;;;;1.73;0.90;;;2.80;87.70;;;;;;10086563;28;20017;-62
2023/02/27 22:26:32;;;;;;;1.95;0.95;;;2.80;87.90;;;;;;10084001;28;20427;-61
2023/02/27 22:31:25;;;;;;;1.75;1.00;;;2.60;87.80;;;;;;10093360;28;20098;-64
2023/02/27 22:36:19;;;;;;;1.10;0.90;;;2.60;88.00;;;;;;10170870;22;20051;-65
2023/02/27 22:41:13;;;;;;;1.65;0.77;;;2.60;88.10;;;;;;10149855;28;20020;-64
2023/02/27 22:46:08;;;;;;;2.42;0.90;;;2.50;88.20;;;;;;10145400;28;20025;-64
2023/02/27 22:51:02;;;;;;;1.13;0.77;;;2.40;88.10;;;;;;10175998;28;20059;-60
2023/02/27 22:55:56;;;;;;;1.05;0.95;;;2.40;88.10;;;;;;10169171;28;20433;-63
2023/02/27 23:00:47;;;;;;;1.08;0.88;;;2.30;87.90;;;;;;10177324;28;20076;-64
2023/02/27 23:05:44;;;;;;;1.60;1.00;;;2.30;87.80;;;;;;10166256;28;20128;-63
2023/02/27 23:10:35;;;;;;;1.67;1.00;;;2.30;87.90;;;;;;10150642;28;20494;-62
2023/02/27 23:15:25;;;;;;;2.05;1.10;;;2.20;87.90;;;;;;10166981;28;20054;-63
2023/02/27 23:20:16;;;;;;;1.73;1.20;;;2.10;88.00;;;;;;10142554;28;20027;-62
2023/02/27 23:25:09;;;;;;;2.28;1.63;;;2.10;88.10;;;;;;10159126;28;20016;-62
2023/02/27 23:30:00;;;;;;;2.35;1.40;;;1.90;88.80;;;;;;10166694;28;20048;-62
2023/02/27 23:34:51;;;;;;;1.63;1.05;;;1.90;89.10;;;;;;10173127;28;20056;-63
2023/02/27 23:39:41;;;;;;;2.63;1.58;;;1.90;89.40;;;;;;10174697;28;20103;-63
2023/02/27 23:44:32;;;;;;;3.55;1.13;;;1.90;89.60;;;;;;10166569;28;20473;-62
2023/02/27 23:49:23;;;;;;;2.05;0.90;;;1.80;89.90;;;;;;10160536;28;20032;-64
2023/02/27 23:54:13;;;;;;;2.50;1.08;;;1.80;90.20;;;;;;10147336;28;20031;-63
2023/02/27 23:59:05;;;;;;;4.32;2.25;;;1.80;90.30;;;;;;10154563;28;20037;-63
